sensor_id;sensor_type;location;lat;lon;timestamp;pressure;altitude;pressure_sealevel;temperature;humidity
20942;BME280;10630;53.734;10.282;2022-08-04T00:07:15;101084.06;;;30.03;61.60
20942;BME280;10630;53.734;10.282;2022-08-04T00:12:16;101074.41;;;30.10;60.93
20942;BME280;10630;53.734;10.282;2022-08-04T00:14:57;101009.75;;;29.69;61.04
20942;BME280;10630;53.734;10.282;2022-08-04T00:17:30;101072.53;;;30.06;61.36
20942;BME280;10630;53.734;10.282;2022-08-04T00:20:03;100972.19;;;29.41;60.96
20942;BME280;10630;53.734;10.282;2022-08-04T00:22:33;101070.72;;;29.91;61.57
20942;BME280;10630;53.734;10.282;2022-08-04T00:25:02;101078.28;;;30.04;60.94
20942;BME280;10630;53.734;10.282;2022-08-04T00:27:31;101071.00;;;29.89;62.07
20942;BME280;10630;53.734;10.282;2022-08-04T00:30:03;101071.13;;;30.08;61.00
20942;BME280;10630;53.734;10.282;2022-08-04T00:32:30;101068.06;;;30.10;60.96
20942;BME280;10630;53.734;10.282;2022-08-04T00:35:00;101074.78;;;29.98;61.45
20942;BME280;10630;53.734;10.282;2022-08-04T00:37:27;101039.25;;;29.83;61.48
20942;BME280;10630;53.734;10.282;2022-08-04T00:39:55;101005.72;;;29.62;61.25
20942;BME280;10630;53.734;10.282;2022-08-04T00:50:39;100788.97;;;27.95;63.08
20942;BME280;10630;53.734;10.282;2022-08-04T00:53:30;101055.47;;;29.79;61.74
20942;BME280;10630;53.734;10.282;2022-08-04T01:09:43;101033.53;;;28.50;67.31
20942;BME280;10630;53.734;10.282;2022-08-04T01:12:40;101041.41;;;28.67;68.21
20942;BME280;10630;53.734;10.282;2022-08-04T01:15:23;101068.50;;;28.73;68.44
20942;BME280;10630;53.734;10.282;2022-08-04T01:18:07;101006.47;;;28.48;67.97
20942;BME280;10630;53.734;10.282;2022-08-04T01:20:45;101035.09;;;28.77;66.40
20942;BME280;10630;53.734;10.282;2022-08-04T01:26:30;101052.34;;;28.77;67.16
20942;BME280;10630;53.734;10.282;2022-08-04T01:29:23;101003.41;;;28.60;67.62
20942;BME280;10630;53.734;10.282;2022-08-04T01:32:40;100958.59;;;28.46;66.19
20942;BME280;10630;53.734;10.282;2022-08-04T01:35:50;101025.78;;;28.78;67.10
20942;BME280;10630;53.734;10.282;2022-08-04T01:38:25;101026.31;;;28.85;66.92
20942;BME280;10630;53.734;10.282;2022-08-04T01:40:58;101023.31;;;28.81;66.66
20942;BME280;10630;53.734;10.282;2022-08-04T01:43:30;101007.47;;;28.73;66.67
20942;BME280;10630;53.734;10.282;2022-08-04T01:46:02;101018.94;;;28.80;66.47
20942;BME280;10630;53.734;10.282;2022-08-04T01:48:30;100735.25;;;26.84;64.19
20942;BME280;10630;53.734;10.282;2022-08-04T01:51:02;101021.06;;;28.28;65.43
20942;BME280;10630;53.734;10.282;2022-08-04T01:53:35;100616.53;;;25.37;68.01
20942;BME280;10630;53.734;10.282;2022-08-04T01:56:04;101017.84;;;28.00;68.89
20942;BME280;10630;53.734;10.282;2022-08-04T01:59:06;101011.81;;;27.98;68.88
20942;BME280;10630;53.734;10.282;2022-08-04T02:01:37;101017.00;;;28.10;69.34
20942;BME280;10630;53.734;10.282;2022-08-04T02:04:05;100739.06;;;26.52;68.06
20942;BME280;10630;53.734;10.282;2022-08-04T02:06:54;101008.75;;;28.20;68.14
20942;BME280;10630;53.734;10.282;2022-08-04T02:09:45;101012.84;;;28.28;66.80
20942;BME280;10630;53.734;10.282;2022-08-04T02:15:41;100767.72;;;26.60;67.03
20942;BME280;10630;53.734;10.282;2022-08-04T02:21:04;101007.16;;;27.93;67.23
20942;BME280;10630;53.734;10.282;2022-08-04T02:23:36;101003.09;;;27.91;68.64
20942;BME280;10630;53.734;10.282;2022-08-04T02:26:25;101006.88;;;28.05;67.67
20942;BME280;10630;53.734;10.282;2022-08-04T02:29:20;100979.03;;;27.83;65.58
20942;BME280;10630;53.734;10.282;2022-08-04T02:32:04;101002.81;;;27.82;65.48
20942;BME280;10630;53.734;10.282;2022-08-04T02:34:37;100997.09;;;27.73;64.86
20942;BME280;10630;53.734;10.282;2022-08-04T02:37:08;100997.09;;;27.47;65.83
20942;BME280;10630;53.734;10.282;2022-08-04T02:39:41;101004.19;;;27.17;68.48
20942;BME280;10630;53.734;10.282;2022-08-04T02:42:16;100994.91;;;27.34;68.02
20942;BME280;10630;53.734;10.282;2022-08-04T02:44:48;100890.53;;;26.75;68.34
20942;BME280;10630;53.734;10.282;2022-08-04T02:47:20;100994.66;;;27.51;67.96
20942;BME280;10630;53.734;10.282;2022-08-04T02:50:07;100990.81;;;27.31;69.10
20942;BME280;10630;53.734;10.282;2022-08-04T02:52:37;100860.22;;;26.56;69.35
20942;BME280;10630;53.734;10.282;2022-08-04T02:55:05;100992.19;;;27.39;70.03
20942;BME280;10630;53.734;10.282;2022-08-04T02:57:38;100946.84;;;27.07;69.77
20942;BME280;10630;53.734;10.282;2022-08-04T03:00:08;100991.38;;;27.49;68.43
20942;BME280;10630;53.734;10.282;2022-08-04T03:14:34;100971.97;;;27.20;69.69
20942;BME280;10630;53.734;10.282;2022-08-04T03:21:04;100957.75;;;27.12;68.97
20942;BME280;10630;53.734;10.282;2022-08-04T03:23:52;100727.25;;;25.69;68.50
20942;BME280;10630;53.734;10.282;2022-08-04T03:29:25;100840.84;;;26.32;69.34
20942;BME280;10630;53.734;10.282;2022-08-04T03:39:11;100836.31;;;25.84;68.42
20942;BME280;10630;53.734;10.282;2022-08-04T03:41:39;101006.06;;;26.81;67.95
20942;BME280;10630;53.734;10.282;2022-08-04T04:19:07;100980.38;;;26.08;69.08
20942;BME280;10630;53.734;10.282;2022-08-04T04:27:31;100979.09;;;26.31;71.21
20942;BME280;10630;53.734;10.282;2022-08-04T04:30:28;100983.84;;;26.62;70.45
20942;BME280;10630;53.734;10.282;2022-08-04T04:33:19;100980.56;;;26.60;70.10
20942;BME280;10630;53.734;10.282;2022-08-04T04:44:51;100876.28;;;26.42;72.34
20942;BME280;10630;53.734;10.282;2022-08-04T04:53:46;100962.38;;;27.38;71.31
20942;BME280;10630;53.734;10.282;2022-08-04T04:56:36;100911.06;;;27.19;69.34
20942;BME280;10630;53.734;10.282;2022-08-04T04:59:10;100956.69;;;27.55;71.32
20942;BME280;10630;53.734;10.282;2022-08-04T05:01:51;100844.44;;;27.10;74.06
20942;BME280;10630;53.734;10.282;2022-08-04T05:05:20;100939.38;;;27.85;74.37
20942;BME280;10630;53.734;10.282;2022-08-04T05:08:13;100955.72;;;28.16;72.67
20942;BME280;10630;53.734;10.282;2022-08-04T05:11:35;100952.69;;;28.18;71.43
20942;BME280;10630;53.734;10.282;2022-08-04T05:14:21;100955.34;;;28.33;73.14
20942;BME280;10630;53.734;10.282;2022-08-04T05:20:03;100883.28;;;28.08;74.23
20942;BME280;10630;53.734;10.282;2022-08-04T05:22:47;100693.41;;;27.14;73.62
20942;BME280;10630;53.734;10.282;2022-08-04T05:25:58;100852.56;;;28.22;73.25
20942;BME280;10630;53.734;10.282;2022-08-04T05:28:51;100950.63;;;28.99;73.41
20942;BME280;10630;53.734;10.282;2022-08-04T05:31:41;100947.09;;;29.28;71.54
20942;BME280;10630;53.734;10.282;2022-08-04T05:34:24;100940.38;;;29.45;70.91
20942;BME280;10630;53.734;10.282;2022-08-04T05:37:02;100796.28;;;28.85;68.80
20942;BME280;10630;53.734;10.282;2022-08-04T05:39:55;100944.72;;;29.75;68.72
20942;BME280;10630;53.734;10.282;2022-08-04T05:42:39;100943.78;;;29.85;69.39
20942;BME280;10630;53.734;10.282;2022-08-04T05:45:08;100952.91;;;30.05;67.15
20942;BME280;10630;53.734;10.282;2022-08-04T05:47:37;100939.16;;;30.29;66.47
20942;BME280;10630;53.734;10.282;2022-08-04T05:50:08;100729.75;;;29.09;66.72
20942;BME280;10630;53.734;10.282;2022-08-04T05:52:38;100946.94;;;30.65;65.35
20942;BME280;10630;53.734;10.282;2022-08-04T05:55:06;100871.66;;;30.09;64.92
20942;BME280;10630;53.734;10.282;2022-08-04T05:57:38;100933.56;;;30.77;64.62
20942;BME280;10630;53.734;10.282;2022-08-04T06:00:09;100949.44;;;31.00;63.56
20942;BME280;10630;53.734;10.282;2022-08-04T06:02:57;100927.22;;;30.96;63.00
20942;BME280;10630;53.734;10.282;2022-08-04T06:05:27;100925.38;;;31.24;61.98
20942;BME280;10630;53.734;10.282;2022-08-04T06:07:56;100928.19;;;31.52;60.87
20942;BME280;10630;53.734;10.282;2022-08-04T06:10:43;100886.44;;;31.50;59.70
20942;BME280;10630;53.734;10.282;2022-08-04T06:13:10;100923.75;;;31.84;59.69
20942;BME280;10630;53.734;10.282;2022-08-04T06:16:00;100925.34;;;32.13;58.38
20942;BME280;10630;53.734;10.282;2022-08-04T06:18:31;100922.59;;;32.27;56.99
20942;BME280;10630;53.734;10.282;2022-08-04T06:21:21;100929.19;;;32.40;57.05
20942;BME280;10630;53.734;10.282;2022-08-04T06:23:51;100928.47;;;32.71;55.66
20942;BME280;10630;53.734;10.282;2022-08-04T06:26:29;100637.06;;;31.00;54.72
20942;BME280;10630;53.734;10.282;2022-08-04T06:29:08;100907.34;;;33.03;54.07
20942;BME280;10630;53.734;10.282;2022-08-04T06:31:53;100921.88;;;32.95;54.13
20942;BME280;10630;53.734;10.282;2022-08-04T06:34:45;100851.00;;;32.87;53.09
20942;BME280;10630;53.734;10.282;2022-08-04T06:37:14;100759.16;;;32.68;51.63
20942;BME280;10630;53.734;10.282;2022-08-04T06:40:02;100882.88;;;33.33;51.00
20942;BME280;10630;53.734;10.282;2022-08-04T06:42:54;100921.81;;;33.81;51.07
20942;BME280;10630;53.734;10.282;2022-08-04T06:45:23;100915.81;;;33.78;51.20
20942;BME280;10630;53.734;10.282;2022-08-04T06:47:53;100819.88;;;33.67;50.16
20942;BME280;10630;53.734;10.282;2022-08-04T06:50:23;100907.19;;;34.47;49.10
20942;BME280;10630;53.734;10.282;2022-08-04T06:53:12;100885.75;;;34.70;48.60
20942;BME280;10630;53.734;10.282;2022-08-04T06:55:50;100907.31;;;35.12;48.07
20942;BME280;10630;53.734;10.282;2022-08-04T06:58:20;100886.34;;;34.93;47.69
20942;BME280;10630;53.734;10.282;2022-08-04T07:00:53;100485.00;;;32.54;46.93
20942;BME280;10630;53.734;10.282;2022-08-04T07:03:29;100744.59;;;34.36;46.87
20942;BME280;10630;53.734;10.282;2022-08-04T07:06:02;100894.28;;;35.60;46.40
20942;BME280;10630;53.734;10.282;2022-08-04T07:08:34;100877.41;;;35.53;46.15
20942;BME280;10630;53.734;10.282;2022-08-04T07:11:03;100725.25;;;34.93;45.17
20942;BME280;10630;53.734;10.282;2022-08-04T07:13:43;100688.75;;;34.69;44.55
20942;BME280;10630;53.734;10.282;2022-08-04T07:16:30;100900.66;;;36.11;44.17
20942;BME280;10630;53.734;10.282;2022-08-04T07:18:59;100895.75;;;36.17;43.51
20942;BME280;10630;53.734;10.282;2022-08-04T07:21:38;100894.47;;;36.36;43.21
20942;BME280;10630;53.734;10.282;2022-08-04T07:24:30;100802.91;;;35.39;43.05
20942;BME280;10630;53.734;10.282;2022-08-04T07:26:58;100745.69;;;35.39;42.72
20942;BME280;10630;53.734;10.282;2022-08-04T07:29:28;100896.31;;;36.65;42.81
20942;BME280;10630;53.734;10.282;2022-08-04T07:32:03;100902.34;;;36.67;42.65
20942;BME280;10630;53.734;10.282;2022-08-04T07:34:32;100895.00;;;36.84;42.97
20942;BME280;10630;53.734;10.282;2022-08-04T07:37:01;100897.97;;;36.24;41.90
20942;BME280;10630;53.734;10.282;2022-08-04T07:39:30;100894.47;;;36.36;42.47
20942;BME280;10630;53.734;10.282;2022-08-04T07:42:13;100891.56;;;36.53;42.03
20942;BME280;10630;53.734;10.282;2022-08-04T07:44:45;100888.72;;;36.96;41.50
20942;BME280;10630;53.734;10.282;2022-08-04T07:47:13;100553.97;;;35.05;40.14
20942;BME280;10630;53.734;10.282;2022-08-04T07:49:42;100896.63;;;37.18;40.19
20942;BME280;10630;53.734;10.282;2022-08-04T07:52:24;100888.38;;;37.10;40.38
20942;BME280;10630;53.734;10.282;2022-08-04T07:54:52;100865.69;;;37.66;39.29
20942;BME280;10630;53.734;10.282;2022-08-04T07:57:20;100871.06;;;38.40;38.81
20942;BME280;10630;53.734;10.282;2022-08-04T08:00:09;100774.09;;;37.53;37.35
20942;BME280;10630;53.734;10.282;2022-08-04T08:02:38;100869.13;;;37.63;38.10
20942;BME280;10630;53.734;10.282;2022-08-04T08:05:14;100886.38;;;38.22;37.45
20942;BME280;10630;53.734;10.282;2022-08-04T08:07:48;100772.59;;;37.56;36.80
20942;BME280;10630;53.734;10.282;2022-08-04T08:10:23;100866.69;;;38.84;36.42
20942;BME280;10630;53.734;10.282;2022-08-04T08:12:53;100863.47;;;39.14;35.38
20942;BME280;10630;53.734;10.282;2022-08-04T08:15:30;100865.91;;;38.99;35.73
20942;BME280;10630;53.734;10.282;2022-08-04T08:18:04;100880.34;;;39.21;35.41
20942;BME280;10630;53.734;10.282;2022-08-04T08:20:31;100839.72;;;39.32;34.85
20942;BME280;10630;53.734;10.282;2022-08-04T08:23:02;100874.94;;;39.60;34.57
20942;BME280;10630;53.734;10.282;2022-08-04T08:25:31;100796.94;;;38.89;34.74
20942;BME280;10630;53.734;10.282;2022-08-04T08:28:02;100856.03;;;38.41;36.05
20942;BME280;10630;53.734;10.282;2022-08-04T08:30:34;100866.72;;;39.00;35.74
20942;BME280;10630;53.734;10.282;2022-08-04T08:33:11;100855.63;;;39.67;34.89
20942;BME280;10630;53.734;10.282;2022-08-04T08:42:20;100852.53;;;40.47;34.24
20942;BME280;10630;53.734;10.282;2022-08-04T08:45:23;100846.16;;;40.47;34.44
20942;BME280;10630;53.734;10.282;2022-08-04T08:56:35;100634.56;;;39.29;33.73
20942;BME280;10630;53.734;10.282;2022-08-04T08:59:29;100835.19;;;40.77;33.26
20942;BME280;10630;53.734;10.282;2022-08-04T09:10:51;100811.84;;;40.43;33.14
20942;BME280;10630;53.734;10.282;2022-08-04T09:13:29;100806.31;;;40.89;32.75
20942;BME280;10630;53.734;10.282;2022-08-04T09:21:36;100770.47;;;40.91;32.29
20942;BME280;10630;53.734;10.282;2022-08-04T09:24:10;100838.03;;;41.54;32.12
20942;BME280;10630;53.734;10.282;2022-08-04T09:27:06;100818.81;;;42.06;31.25
20942;BME280;10630;53.734;10.282;2022-08-04T09:29:45;100828.81;;;42.45;31.33
20942;BME280;10630;53.734;10.282;2022-08-04T09:47:19;100810.19;;;41.88;29.56
20942;BME280;10630;53.734;10.282;2022-08-04T09:50:16;100802.97;;;43.04;29.46
20942;BME280;10630;53.734;10.282;2022-08-04T09:59:01;100795.34;;;42.52;28.77
20942;BME280;10630;53.734;10.282;2022-08-04T10:01:40;100802.41;;;42.39;28.47
20942;BME280;10630;53.734;10.282;2022-08-04T10:04:23;100787.56;;;41.97;27.85
20942;BME280;10630;53.734;10.282;2022-08-04T10:07:30;100794.00;;;42.05;28.61
20942;BME280;10630;53.734;10.282;2022-08-04T10:13:32;100796.72;;;42.73;27.70
20942;BME280;10630;53.734;10.282;2022-08-04T10:19:34;100774.13;;;42.93;28.25
20942;BME280;10630;53.734;10.282;2022-08-04T10:22:24;100671.81;;;41.95;28.22
20942;BME280;10630;53.734;10.282;2022-08-04T10:25:37;100779.34;;;42.98;27.83
20942;BME280;10630;53.734;10.282;2022-08-04T10:32:04;100399.53;;;40.88;27.01
20942;BME280;10630;53.734;10.282;2022-08-04T10:40:47;100768.44;;;42.37;26.81
20942;BME280;10630;53.734;10.282;2022-08-04T10:43:49;100772.22;;;42.59;26.74
20942;BME280;10630;53.734;10.282;2022-08-04T10:46:30;100764.31;;;41.89;27.04
20942;BME280;10630;53.734;10.282;2022-08-04T10:49:37;100581.63;;;41.53;27.20
20942;BME280;10630;53.734;10.282;2022-08-04T10:55:32;100768.75;;;41.94;27.82
20942;BME280;10630;53.734;10.282;2022-08-04T10:58:34;100754.47;;;42.37;27.55
20942;BME280;10630;53.734;10.282;2022-08-04T11:01:41;100728.31;;;40.96;28.54
20942;BME280;10630;53.734;10.282;2022-08-04T11:04:52;100746.06;;;41.08;28.96
20942;BME280;10630;53.734;10.282;2022-08-04T11:07:32;100678.28;;;40.30;29.27
20942;BME280;10630;53.734;10.282;2022-08-04T11:10:02;100744.78;;;40.55;28.91
20942;BME280;10630;53.734;10.282;2022-08-04T11:12:36;100747.72;;;40.89;29.11
20942;BME280;10630;53.734;10.282;2022-08-04T11:15:21;100660.38;;;41.08;28.21
20942;BME280;10630;53.734;10.282;2022-08-04T11:18:09;100731.66;;;42.35;27.97
20942;BME280;10630;53.734;10.282;2022-08-04T11:20:59;100568.25;;;42.21;27.13
20942;BME280;10630;53.734;10.282;2022-08-04T11:23:33;100723.97;;;42.24;27.07
20942;BME280;10630;53.734;10.282;2022-08-04T11:32:43;100726.25;;;43.12;26.27
20942;BME280;10630;53.734;10.282;2022-08-04T11:35:49;100568.66;;;41.75;26.56
20942;BME280;10630;53.734;10.282;2022-08-04T11:38:27;100724.72;;;42.63;26.43
20942;BME280;10630;53.734;10.282;2022-08-04T11:41:04;100675.44;;;43.03;26.29
20942;BME280;10630;53.734;10.282;2022-08-04T11:43:53;100693.44;;;43.02;25.61
20942;BME280;10630;53.734;10.282;2022-08-04T11:46:53;100424.78;;;40.64;26.22
20942;BME280;10630;53.734;10.282;2022-08-04T11:49:33;100599.34;;;42.16;26.55
20942;BME280;10630;53.734;10.282;2022-08-04T11:52:26;100700.22;;;43.86;25.98
20942;BME280;10630;53.734;10.282;2022-08-04T11:55:06;100650.56;;;43.68;25.58
20942;BME280;10630;53.734;10.282;2022-08-04T11:57:36;100707.47;;;44.73;25.69
20942;BME280;10630;53.734;10.282;2022-08-04T12:00:09;100583.22;;;42.47;26.36
20942;BME280;10630;53.734;10.282;2022-08-04T12:05:56;100486.13;;;41.36;26.59
20942;BME280;10630;53.734;10.282;2022-08-04T12:11:51;100707.44;;;43.90;25.71
20942;BME280;10630;53.734;10.282;2022-08-04T12:14:48;100592.19;;;43.99;25.12
20942;BME280;10630;53.734;10.282;2022-08-04T12:17:31;100691.47;;;44.13;25.37
20942;BME280;10630;53.734;10.282;2022-08-04T12:20:23;100685.47;;;44.25;25.59
20942;BME280;10630;53.734;10.282;2022-08-04T12:23:14;100683.78;;;43.84;25.80
20942;BME280;10630;53.734;10.282;2022-08-04T12:25:47;100559.97;;;43.13;26.17
20942;BME280;10630;53.734;10.282;2022-08-04T12:28:30;100583.47;;;42.28;26.50
20942;BME280;10630;53.734;10.282;2022-08-04T12:31:20;100661.06;;;43.01;25.82
20942;BME280;10630;53.734;10.282;2022-08-04T12:33:58;100669.09;;;43.10;25.67
20942;BME280;10630;53.734;10.282;2022-08-04T12:39:53;100615.84;;;41.87;26.13
20942;BME280;10630;53.734;10.282;2022-08-04T12:42:54;100665.16;;;42.10;26.46
20942;BME280;10630;53.734;10.282;2022-08-04T12:45:29;100665.53;;;42.53;26.03
20942;BME280;10630;53.734;10.282;2022-08-04T12:48:02;100562.13;;;42.61;26.06
20942;BME280;10630;53.734;10.282;2022-08-04T12:50:32;100655.75;;;43.73;25.94
20942;BME280;10630;53.734;10.282;2022-08-04T12:52:59;100645.28;;;43.45;26.15
20942;BME280;10630;53.734;10.282;2022-08-04T12:55:30;100647.00;;;43.86;25.74
20942;BME280;10630;53.734;10.282;2022-08-04T12:58:10;100623.78;;;44.10;25.46
20942;BME280;10630;53.734;10.282;2022-08-04T13:00:43;100648.97;;;43.96;24.80
20942;BME280;10630;53.734;10.282;2022-08-04T13:03:15;100521.28;;;43.37;25.05
20942;BME280;10630;53.734;10.282;2022-08-04T13:05:45;100572.16;;;43.75;24.61
20942;BME280;10630;53.734;10.282;2022-08-04T13:08:21;100392.75;;;41.26;24.99
20942;BME280;10630;53.734;10.282;2022-08-04T13:10:52;100632.03;;;43.31;25.14
20942;BME280;10630;53.734;10.282;2022-08-04T13:13:24;100624.53;;;42.72;25.73
20942;BME280;10630;53.734;10.282;2022-08-04T13:16:01;100527.63;;;42.35;25.99
20942;BME280;10630;53.734;10.282;2022-08-04T13:18:38;100632.59;;;42.84;26.07
20942;BME280;10630;53.734;10.282;2022-08-04T13:21:21;100621.78;;;43.89;25.30
20942;BME280;10630;53.734;10.282;2022-08-04T13:24:14;100616.88;;;43.43;24.98
20942;BME280;10630;53.734;10.282;2022-08-04T13:27:05;100572.72;;;42.96;24.91
20942;BME280;10630;53.734;10.282;2022-08-04T13:29:43;100385.78;;;41.06;24.93
20942;BME280;10630;53.734;10.282;2022-08-04T13:35:35;100604.00;;;43.20;24.59
20942;BME280;10630;53.734;10.282;2022-08-04T13:38:23;100617.00;;;43.97;24.52
20942;BME280;10630;53.734;10.282;2022-08-04T13:40:59;100599.00;;;44.05;24.51
20942;BME280;10630;53.734;10.282;2022-08-04T13:43:31;100558.94;;;43.72;24.95
20942;BME280;10630;53.734;10.282;2022-08-04T13:46:24;100591.63;;;43.25;24.71
20942;BME280;10630;53.734;10.282;2022-08-04T13:49:00;100592.69;;;42.88;25.03
20942;BME280;10630;53.734;10.282;2022-08-04T13:52:16;100592.16;;;44.21;24.38
20942;BME280;10630;53.734;10.282;2022-08-04T13:54:45;100504.97;;;41.91;25.31
20942;BME280;10630;53.734;10.282;2022-08-04T13:57:35;100580.94;;;43.56;25.15
20942;BME280;10630;53.734;10.282;2022-08-04T14:00:09;100526.00;;;43.11;24.89
20942;BME280;10630;53.734;10.282;2022-08-04T14:03:03;100587.81;;;42.77;25.45
20942;BME280;10630;53.734;10.282;2022-08-04T14:06:12;100563.09;;;42.27;25.72
20942;BME280;10630;53.734;10.282;2022-08-04T14:09:09;100560.25;;;42.16;25.33
20942;BME280;10630;53.734;10.282;2022-08-04T14:11:49;100531.78;;;42.63;24.65
20942;BME280;10630;53.734;10.282;2022-08-04T14:14:51;100552.34;;;43.03;25.15
20942;BME280;10630;53.734;10.282;2022-08-04T14:17:25;100563.78;;;41.65;25.88
20942;BME280;10630;53.734;10.282;2022-08-04T14:20:07;100532.97;;;41.99;25.47
20942;BME280;10630;53.734;10.282;2022-08-04T14:22:35;100561.34;;;42.57;25.32
20942;BME280;10630;53.734;10.282;2022-08-04T14:25:11;100560.69;;;42.85;25.91
20942;BME280;10630;53.734;10.282;2022-08-04T14:27:55;100475.75;;;42.34;25.78
20942;BME280;10630;53.734;10.282;2022-08-04T14:30:35;100529.25;;;42.36;25.85
20942;BME280;10630;53.734;10.282;2022-08-04T14:36:37;100519.75;;;42.51;25.55
20942;BME280;10630;53.734;10.282;2022-08-04T14:39:49;100425.66;;;42.03;26.44
20942;BME280;10630;53.734;10.282;2022-08-04T14:45:08;100545.28;;;42.46;25.58
20942;BME280;10630;53.734;10.282;2022-08-04T14:47:47;100556.88;;;42.45;26.11
20942;BME280;10630;53.734;10.282;2022-08-04T14:50:18;100558.38;;;43.12;25.77
20942;BME280;10630;53.734;10.282;2022-08-04T14:52:45;100556.75;;;43.04;26.07
20942;BME280;10630;53.734;10.282;2022-08-04T14:55:22;100555.78;;;42.67;26.63
20942;BME280;10630;53.734;10.282;2022-08-04T14:57:51;100558.69;;;42.85;26.51
20942;BME280;10630;53.734;10.282;2022-08-04T15:00:46;100562.13;;;42.61;27.34
20942;BME280;10630;53.734;10.282;2022-08-04T15:03:17;100391.03;;;41.11;27.06
20942;BME280;10630;53.734;10.282;2022-08-04T15:05:50;100407.25;;;40.07;28.81
20942;BME280;10630;53.734;10.282;2022-08-04T15:08:38;100595.91;;;41.13;29.56
20942;BME280;10630;53.734;10.282;2022-08-04T15:11:15;100601.59;;;40.63;30.38
20942;BME280;10630;53.734;10.282;2022-08-04T15:13:51;100471.59;;;39.28;31.19
20942;BME280;10630;53.734;10.282;2022-08-04T15:16:21;100350.84;;;38.27;31.67
20942;BME280;10630;53.734;10.282;2022-08-04T15:18:52;100633.22;;;39.23;32.15
20942;BME280;10630;53.734;10.282;2022-08-04T15:21:24;100629.75;;;39.26;32.74
20942;BME280;10630;53.734;10.282;2022-08-04T15:23:56;100622.13;;;39.42;32.69
20942;BME280;10630;53.734;10.282;2022-08-04T15:26:48;100616.22;;;39.08;32.92
20942;BME280;10630;53.734;10.282;2022-08-04T15:29:28;100577.47;;;38.80;33.58
20942;BME280;10630;53.734;10.282;2022-08-04T15:32:25;100591.78;;;38.46;33.98
20942;BME280;10630;53.734;10.282;2022-08-04T15:35:10;100613.22;;;38.14;36.11
20942;BME280;10630;53.734;10.282;2022-08-04T15:38:06;100639.00;;;38.62;36.26
20942;BME280;10630;53.734;10.282;2022-08-04T15:41:01;100651.31;;;38.45;37.66
20942;BME280;10630;53.734;10.282;2022-08-04T15:49:22;100647.22;;;37.26;43.15
20942;BME280;10630;53.734;10.282;2022-08-04T15:52:05;100619.72;;;36.55;44.21
20942;BME280;10630;53.734;10.282;2022-08-04T15:54:41;100648.44;;;36.63;44.79
20942;BME280;10630;53.734;10.282;2022-08-04T15:58:02;100654.78;;;35.92;45.56
20942;BME280;10630;53.734;10.282;2022-08-04T16:03:42;100710.38;;;36.00;44.83
20942;BME280;10630;53.734;10.282;2022-08-04T16:09:04;100741.19;;;34.87;44.20
20942;BME280;10630;53.734;10.282;2022-08-04T16:11:37;100760.81;;;34.55;45.11
20942;BME280;10630;53.734;10.282;2022-08-04T16:14:08;100775.97;;;34.79;45.16
20942;BME280;10630;53.734;10.282;2022-08-04T16:20:00;100873.03;;;34.07;45.26
20942;BME280;10630;53.734;10.282;2022-08-04T16:22:39;100921.91;;;34.16;45.85
20942;BME280;10630;53.734;10.282;2022-08-04T16:25:07;100893.31;;;33.94;46.19
20942;BME280;10630;53.734;10.282;2022-08-04T16:27:43;100981.22;;;33.78;50.27
20942;BME280;10630;53.734;10.282;2022-08-04T16:30:13;100702.66;;;31.02;54.86
20942;BME280;10630;53.734;10.282;2022-08-04T16:32:43;100988.28;;;32.71;57.54
20942;BME280;10630;53.734;10.282;2022-08-04T16:35:19;100961.53;;;32.85;57.97
20942;BME280;10630;53.734;10.282;2022-08-04T16:38:13;100861.88;;;32.92;58.64
20942;BME280;10630;53.734;10.282;2022-08-04T16:40:41;100774.75;;;32.50;58.21
20942;BME280;10630;53.734;10.282;2022-08-04T16:46:39;100887.47;;;32.83;60.26
20942;BME280;10630;53.734;10.282;2022-08-04T16:49:32;100590.34;;;30.16;64.03
20942;BME280;10630;53.734;10.282;2022-08-04T16:52:16;100881.19;;;31.68;66.79
20942;BME280;10630;53.734;10.282;2022-08-04T16:54:44;100850.06;;;30.92;66.79
20942;BME280;10630;53.734;10.282;2022-08-04T16:57:26;100806.91;;;30.65;66.24
20942;BME280;10630;53.734;10.282;2022-08-04T16:59:53;100752.50;;;30.48;65.29
20942;BME280;10630;53.734;10.282;2022-08-04T17:02:24;100859.66;;;31.42;65.94
20942;BME280;10630;53.734;10.282;2022-08-04T17:04:59;100831.56;;;31.45;65.08
20942;BME280;10630;53.734;10.282;2022-08-04T17:07:50;100495.56;;;28.92;68.29
20942;BME280;10630;53.734;10.282;2022-08-04T17:10:41;100824.91;;;31.46;67.12
20942;BME280;10630;53.734;10.282;2022-08-04T17:13:29;100802.13;;;31.32;66.31
20942;BME280;10630;53.734;10.282;2022-08-04T17:16:17;100622.16;;;30.31;66.71
20942;BME280;10630;53.734;10.282;2022-08-04T17:18:51;100770.13;;;31.08;65.84
20942;BME280;10630;53.734;10.282;2022-08-04T17:21:34;100796.97;;;30.97;67.09
20942;BME280;10630;53.734;10.282;2022-08-04T17:24:03;100786.06;;;31.25;66.50
20942;BME280;10630;53.734;10.282;2022-08-04T17:26:45;100761.19;;;31.16;67.68
20942;BME280;10630;53.734;10.282;2022-08-04T17:29:21;100749.56;;;31.05;69.30
20942;BME280;10630;53.734;10.282;2022-08-04T17:32:17;100740.72;;;31.36;69.37
20942;BME280;10630;53.734;10.282;2022-08-04T17:35:09;100729.66;;;31.00;68.01
20942;BME280;10630;53.734;10.282;2022-08-04T17:37:58;100659.84;;;30.73;66.90
20942;BME280;10630;53.734;10.282;2022-08-04T17:40:26;100197.56;;;27.57;68.87
20942;BME280;10630;53.734;10.282;2022-08-04T17:43:09;100508.81;;;29.56;70.55
20942;BME280;10630;53.734;10.282;2022-08-04T17:49:19;100582.53;;;30.38;64.07